Time;durP1;ratioP1;P1;durP2;ratioP2;P2;SDS_P1;SDS_P2;PMS_P1;PMS_P2;Temp;Humidity;BMP_temperature;BMP_pressure;BME280_temperature;BME280_humidity;BME280_pressure;Samples;Min_cycle;Max_cycle;Signal;HPM_P1;HPM_P2
2023/04/04 00:00:25;;;;;;;2.92;2.28;;;;;;;2.67;67.41;98896.16;4185628;28;20213;-84
2023/04/04 00:02:28;;;;;;;3.88;2.08;;;;;;;2.70;67.40;98898.66;4181834;28;20205;-84
2023/04/04 00:04:33;;;;;;;2.72;2.08;;;;;;;2.72;67.67;98896.94;4177076;28;20279;-84
2023/04/04 00:06:36;;;;;;;4.70;2.58;;;;;;;2.72;67.23;98890.91;4183693;28;20236;-84
2023/04/04 00:08:39;;;;;;;3.00;2.30;;;;;;;2.71;67.14;98895.22;4184273;28;20231;-84
2023/04/04 00:10:42;;;;;;;5.50;2.10;;;;;;;2.71;67.57;98884.09;4176600;28;20206;-84
2023/04/04 00:12:46;;;;;;;4.10;2.42;;;;;;;2.72;67.58;98886.63;4184320;28;20205;-84
2023/04/04 00:14:49;;;;;;;5.82;2.40;;;;;;;2.73;67.47;98885.72;4185948;28;20696;-84
2023/04/04 00:16:53;;;;;;;6.00;3.03;;;;;;;2.73;67.30;98883.16;4181171;28;20233;-84
2023/04/04 00:18:56;;;;;;;4.13;2.33;;;;;;;2.73;67.56;98888.31;4186397;28;20211;-84
2023/04/04 00:21:00;;;;;;;4.70;2.17;;;;;;;2.74;67.46;98879.69;4183714;28;20202;-84
2023/04/04 00:23:03;;;;;;;3.58;2.38;;;;;;;2.79;67.47;98881.25;4182607;28;20226;-84
2023/04/04 00:25:07;;;;;;;4.72;2.40;;;;;;;2.82;67.49;98888.06;4186073;28;20325;-84
2023/04/04 00:27:10;;;;;;;5.28;2.65;;;;;;;2.86;67.51;98889.69;4168387;28;20343;-84
2023/04/04 00:29:13;;;;;;;4.18;2.10;;;;;;;2.81;67.16;98873.50;4178617;28;20253;-84
2023/04/04 00:31:16;;;;;;;5.57;2.90;;;;;;;2.79;67.59;98870.97;4179072;28;20225;-84
2023/04/04 00:33:20;;;;;;;5.30;2.33;;;;;;;2.83;67.37;98876.91;4163810;28;20234;-84
2023/04/04 00:35:23;;;;;;;3.78;2.90;;;;;;;2.86;67.18;98874.25;4182825;28;20190;-85
2023/04/04 00:37:28;;;;;;;3.72;2.80;;;;;;;2.76;67.18;98865.06;4181028;28;20297;-85
2023/04/04 00:39:31;;;;;;;3.90;2.20;;;;;;;2.70;67.41;98859.22;4178441;28;20701;-84
2023/04/04 00:41:34;;;;;;;4.05;2.20;;;;;;;2.71;67.34;98863.50;4182857;28;20364;-84
2023/04/04 00:43:37;;;;;;;3.50;2.53;;;;;;;2.70;67.49;98860.06;4179006;28;20212;-84
2023/04/04 00:45:41;;;;;;;3.85;2.45;;;;;;;2.70;67.66;98860.06;4181735;28;20226;-84
2023/04/04 00:47:44;;;;;;;4.07;2.40;;;;;;;2.68;67.27;98859.25;4186216;28;20213;-84
2023/04/04 00:49:47;;;;;;;5.90;2.80;;;;;;;2.69;67.75;98852.38;4188157;28;20194;-84
2023/04/04 00:51:51;;;;;;;4.32;2.65;;;;;;;2.72;67.78;98860.03;4178303;28;20209;-84
2023/04/04 00:53:56;;;;;;;3.10;2.20;;;;;;;2.68;67.34;98848.97;4179826;28;20202;-85
2023/04/04 00:55:59;;;;;;;3.30;2.30;;;;;;;2.71;66.86;98856.59;4178420;28;20293;-84
2023/04/04 00:58:03;;;;;;;3.88;2.55;;;;;;;2.73;67.56;98854.00;4181927;28;20658;-84
2023/04/04 01:00:07;;;;;;;3.22;2.20;;;;;;;2.73;67.40;98849.69;4167895;28;20723;-84
2023/04/04 01:02:10;;;;;;;5.03;2.53;;;;;;;2.69;67.38;98849.78;4183656;28;20220;-85
2023/04/04 01:04:14;;;;;;;4.38;2.50;;;;;;;2.67;67.30;98846.44;4185218;28;20726;-85
2023/04/04 01:06:17;;;;;;;3.00;2.20;;;;;;;2.64;67.66;98839.63;4187394;28;20222;-84
2023/04/04 01:08:23;;;;;;;3.53;2.30;;;;;;;2.68;67.36;98837.84;4185429;28;20200;-84
2023/04/04 01:10:30;;;;;;;4.60;2.50;;;;;;;2.67;67.04;98844.69;4173107;28;20214;-83
2023/04/04 01:12:35;;;;;;;4.15;2.50;;;;;;;2.67;67.35;98849.00;4167015;28;20218;-84
2023/04/04 01:14:39;;;;;;;6.00;2.47;;;;;;;2.67;67.78;98844.69;4163297;28;20218;-84
2023/04/04 01:16:42;;;;;;;4.05;2.58;;;;;;;2.65;67.65;98849.03;4183760;28;20209;-84
2023/04/04 01:18:46;;;;;;;3.95;2.42;;;;;;;2.61;67.70;98847.41;4167460;28;20670;-84
2023/04/04 01:20:53;;;;;;;4.35;2.38;;;;;;;2.63;67.61;98849.94;4179322;28;20616;-84
2023/04/04 01:22:56;;;;;;;2.58;1.98;;;;;;;2.63;67.48;98840.53;4186071;28;20722;-84
2023/04/04 01:25:01;;;;;;;2.70;2.30;;;;;;;2.62;67.41;98849.13;4168091;28;20206;-84
2023/04/04 01:27:06;;;;;;;2.35;2.15;;;;;;;2.59;67.73;98844.03;4182713;28;20254;-84
2023/04/04 01:29:15;;;;;;;3.78;2.58;;;;;;;2.54;67.28;98837.31;4187291;28;20206;-84
2023/04/04 01:31:22;;;;;;;4.75;2.28;;;;;;;2.50;67.67;98826.25;4186475;28;20225;-84
2023/04/04 01:33:28;;;;;;;3.38;2.40;;;;;;;2.42;67.77;98835.91;4167660;28;20299;-84
2023/04/04 01:35:36;;;;;;;3.63;2.53;;;;;;;2.36;67.91;98837.75;4194204;28;20247;-84
2023/04/04 01:37:44;;;;;;;4.80;2.30;;;;;;;2.31;68.44;98828.47;4170598;28;20224;-84
2023/04/04 01:39:53;;;;;;;3.95;3.05;;;;;;;2.31;68.37;98823.34;4163815;28;20202;-84
2023/04/04 01:41:58;;;;;;;3.83;2.30;;;;;;;2.28;68.25;98833.69;4165955;28;20202;-84
2023/04/04 01:44:03;;;;;;;8.82;2.75;;;;;;;2.28;68.02;98831.13;4183389;28;20948;-84
2023/04/04 01:46:07;;;;;;;7.45;2.60;;;;;;;2.27;68.23;98826.84;4184051;28;20224;-84
2023/04/04 01:48:11;;;;;;;3.92;2.22;;;;;;;2.26;68.88;98822.59;4186193;28;20209;-84
2023/04/04 01:50:16;;;;;;;5.10;2.42;;;;;;;2.26;68.71;98825.19;4178709;28;20213;-84
2023/04/04 01:52:19;;;;;;;4.05;2.28;;;;;;;2.21;69.03;98827.88;4184591;28;20202;-84
2023/04/04 01:54:22;;;;;;;3.72;2.35;;;;;;;2.20;68.52;98826.16;4168816;28;20732;-84
2023/04/04 01:56:26;;;;;;;4.32;2.22;;;;;;;2.23;69.00;98817.53;4187160;28;20679;-84
2023/04/04 01:58:29;;;;;;;4.97;2.40;;;;;;;2.25;68.62;98820.91;4184565;28;20202;-84
2023/04/04 02:00:33;;;;;;;3.78;2.10;;;;;;;2.23;68.69;98817.53;4180468;28;20688;-84
2023/04/04 02:02:38;;;;;;;4.20;2.08;;;;;;;2.21;68.71;98822.72;4185433;28;24587;-83
2023/04/04 02:04:42;;;;;;;3.67;2.00;;;;;;;2.16;68.94;98821.97;4167714;28;20230;-84
2023/04/04 02:06:45;;;;;;;2.75;2.38;;;;;;;2.16;69.38;98821.97;4167130;28;20368;-84
2023/04/04 02:08:48;;;;;;;2.95;2.22;;;;;;;2.12;69.46;98824.63;4183097;28;20659;-84
2023/04/04 02:10:51;;;;;;;3.72;2.22;;;;;;;2.13;69.22;98821.19;4174230;28;20210;-84
2023/04/04 02:12:54;;;;;;;3.70;2.30;;;;;;;2.07;68.88;98821.34;4177918;28;20602;-84
2023/04/04 02:14:58;;;;;;;3.65;2.50;;;;;;;2.05;68.92;98813.66;4190245;28;20221;-84
2023/04/04 02:17:03;;;;;;;3.25;1.88;;;;;;;2.02;69.28;98818.88;4186033;28;20199;-84
2023/04/04 02:19:06;;;;;;;3.97;2.35;;;;;;;1.99;69.50;98812.97;4190914;28;20239;-84
2023/04/04 02:21:12;;;;;;;3.47;2.22;;;;;;;1.99;69.07;98812.97;4173396;28;20313;-84
2023/04/04 02:23:15;;;;;;;3.58;2.38;;;;;;;1.90;69.29;98814.00;4184130;28;20221;-84
2023/04/04 02:25:18;;;;;;;3.53;2.20;;;;;;;1.85;69.84;98820.16;4175985;28;20217;-84
2023/04/04 02:27:21;;;;;;;2.92;2.10;;;;;;;1.77;69.87;98821.19;4186416;28;20227;-84
2023/04/04 02:29:24;;;;;;;3.90;2.10;;;;;;;1.79;69.57;98815.16;4171467;28;20209;-84
2023/04/04 02:31:27;;;;;;;5.25;2.30;;;;;;;1.80;69.57;98816.81;4184619;28;20213;-84
2023/04/04 02:33:32;;;;;;;2.38;1.90;;;;;;;1.72;69.38;98817.91;4189170;28;20205;-84
2023/04/04 02:35:38;;;;;;;3.55;2.22;;;;;;;1.65;70.21;98812.03;4184274;28;20202;-84
2023/04/04 02:37:41;;;;;;;3.92;2.50;;;;;;;1.72;70.27;98815.31;4174975;28;20324;-84
2023/04/04 02:39:45;;;;;;;4.25;2.22;;;;;;;1.73;70.18;98819.56;4169216;28;20776;-84
2023/04/04 02:41:50;;;;;;;4.47;2.65;;;;;;;1.73;70.15;98815.28;4193130;28;20308;-84
2023/04/04 02:43:53;;;;;;;6.93;2.05;;;;;;;1.71;69.74;98817.03;4167513;28;20256;-84
2023/04/04 02:45:56;;;;;;;2.55;2.20;;;;;;;1.70;70.33;98815.34;4187331;28;20605;-83
2023/04/04 02:48:02;;;;;;;2.60;2.03;;;;;;;1.71;69.92;98814.47;4185874;28;20209;-84
2023/04/04 02:50:16;;;;;;;4.75;2.50;;;;;;;1.71;70.34;98811.88;4166919;28;20201;-84
2023/04/04 02:52:21;;;;;;;4.47;3.03;;;;;;;1.62;70.90;98814.66;4194052;28;20297;-84
2023/04/04 02:54:24;;;;;;;4.57;2.40;;;;;;;1.66;70.86;98808.59;4183675;28;20887;-84
2023/04/04 02:56:27;;;;;;;2.60;2.20;;;;;;;1.69;70.48;98807.69;4171982;28;20202;-84
2023/04/04 02:58:31;;;;;;;3.35;2.28;;;;;;;1.71;70.08;98811.06;4184133;28;20309;-84
2023/04/04 03:00:34;;;;;;;4.50;2.65;;;;;;;1.70;70.75;98805.06;4162661;28;20201;-84
2023/04/04 03:02:38;;;;;;;5.50;2.58;;;;;;;1.74;69.99;98805.84;4185237;28;20215;-84
2023/04/04 03:04:41;;;;;;;3.53;2.83;;;;;;;1.74;70.12;98810.97;4184107;28;20221;-84
2023/04/04 03:06:47;;;;;;;3.15;2.30;;;;;;;1.72;70.45;98808.44;4175177;28;20317;-84
2023/04/04 03:08:50;;;;;;;3.63;1.98;;;;;;;1.69;70.69;98811.09;4197482;28;20202;-84
2023/04/04 03:10:53;;;;;;;2.80;2.30;;;;;;;1.71;69.93;98809.31;4166937;28;20220;-84
2023/04/04 03:12:58;;;;;;;3.42;2.10;;;;;;;1.74;70.08;98810.97;4180254;28;20752;-84
2023/04/04 03:15:04;;;;;;;4.25;2.08;;;;;;;1.74;70.63;98811.81;4168241;28;20203;-84
2023/04/04 03:17:09;;;;;;;2.30;1.95;;;;;;;1.76;70.68;98817.78;4181579;28;20210;-84
2023/04/04 03:19:12;;;;;;;2.45;2.25;;;;;;;1.82;70.18;98815.09;4188331;28;20205;-84
2023/04/04 03:21:16;;;;;;;5.88;2.60;;;;;;;1.78;70.42;98810.88;4175412;28;20260;-84
2023/04/04 03:23:20;;;;;;;3.35;2.50;;;;;;;1.63;69.69;98803.50;4188160;28;20711;-84
2023/04/04 03:25:23;;;;;;;5.20;2.80;;;;;;;1.58;70.44;98807.03;4184559;28;20697;-84
2023/04/04 03:27:26;;;;;;;2.75;2.45;;;;;;;1.51;70.51;98808.06;4179228;28;20239;-84
2023/04/04 03:29:30;;;;;;;6.22;2.67;;;;;;;1.48;70.64;98795.28;4179769;28;20252;-84
2023/04/04 03:31:33;;;;;;;3.33;2.20;;;;;;;1.50;71.09;98802.09;4175239;28;20228;-84
2023/04/04 03:33:36;;;;;;;3.08;2.78;;;;;;;1.56;70.95;98799.38;4183359;28;20241;-84
2023/04/04 03:35:40;;;;;;;2.90;2.60;;;;;;;1.59;71.02;98807.00;4170765;28;20234;-84
2023/04/04 03:37:43;;;;;;;3.88;2.83;;;;;;;1.59;70.96;98801.88;4187603;28;20213;-84
2023/04/04 03:39:48;;;;;;;4.70;3.17;;;;;;;1.63;70.43;98811.22;4172140;28;20748;-84
2023/04/04 03:41:51;;;;;;;4.45;2.97;;;;;;;1.65;70.25;98808.63;4190852;28;20604;-84
2023/04/04 03:43:54;;;;;;;4.85;2.72;;;;;;;1.67;70.09;98804.28;4185254;28;20213;-84
2023/04/04 03:46:03;;;;;;;4.65;3.08;;;;;;;1.66;70.63;98808.59;4183451;28;20213;-84
2023/04/04 03:48:06;;;;;;;7.30;2.70;;;;;;;1.68;70.19;98805.97;4182805;28;20241;-84
2023/04/04 03:50:10;;;;;;;5.07;2.90;;;;;;;1.61;70.11;98804.41;4174010;28;20225;-84
2023/04/04 03:52:20;;;;;;;4.15;3.20;;;;;;;1.64;70.32;98805.22;4172853;28;20202;-84
2023/04/04 03:54:23;;;;;;;5.35;3.72;;;;;;;1.65;70.67;98812.03;4184457;28;20948;-84
2023/04/04 03:56:28;;;;;;;5.00;3.38;;;;;;;1.67;70.75;98812.00;4181390;28;20206;-84
2023/04/04 03:58:35;;;;;;;7.55;3.90;;;;;;;1.65;70.15;98813.75;4173256;28;20213;-85
2023/04/04 04:00:38;;;;;;;4.93;3.55;;;;;;;1.62;70.70;98813.81;4170924;28;20647;-84
2023/04/04 04:02:42;;;;;;;8.43;4.10;;;;;;;1.65;70.82;98812.03;4185280;28;20205;-85
2023/04/04 04:04:45;;;;;;;5.78;3.47;;;;;;;1.64;70.19;98810.34;4166710;28;20233;-84
2023/04/04 04:06:49;;;;;;;6.50;3.83;;;;;;;1.64;70.15;98812.06;4188089;28;20256;-84
2023/04/04 04:08:52;;;;;;;5.80;3.90;;;;;;;1.63;69.95;98803.50;4185700;28;20247;-83
2023/04/04 04:10:55;;;;;;;5.68;4.05;;;;;;;1.62;70.29;98800.97;4184560;28;20239;-84
2023/04/04 04:13:00;;;;;;;6.53;4.10;;;;;;;1.60;70.09;98808.72;4181736;28;20726;-84
2023/04/04 04:15:04;;;;;;;6.13;4.20;;;;;;;1.59;70.20;98807.00;4186398;28;20209;-84
2023/04/04 04:17:09;;;;;;;5.68;4.40;;;;;;;1.64;70.09;98809.47;4173548;28;20233;-84
2023/04/04 04:19:12;;;;;;;5.05;4.10;;;;;;;1.54;69.72;98810.59;4188803;28;20646;-84
2023/04/04 04:21:17;;;;;;;6.95;4.13;;;;;;;1.47;69.94;98811.56;4170358;28;20268;-84
2023/04/04 04:23:20;;;;;;;6.60;4.10;;;;;;;1.49;70.69;98808.09;4181973;28;20198;-84
2023/04/04 04:25:25;;;;;;;5.90;3.85;;;;;;;1.50;70.73;98814.94;4183754;28;20600;-84
2023/04/04 04:27:46;;;;;;;5.60;3.92;;;;;;;1.39;70.75;98804.03;4184765;28;20229;-84
2023/04/04 04:29:51;;;;;;;6.53;4.40;;;;;;;1.34;70.36;98812.72;4177664;28;20324;-82
2023/04/04 04:31:54;;;;;;;5.35;4.18;;;;;;;1.31;71.11;98811.94;4183990;28;20205;-82
2023/04/04 04:34:02;;;;;;;5.43;4.15;;;;;;;1.35;70.58;98816.13;4165809;28;20209;-82
2023/04/04 04:36:07;;;;;;;5.75;4.03;;;;;;;1.28;71.15;98809.41;4169841;28;20225;-82
2023/04/04 04:38:22;;;;;;;5.15;3.55;;;;;;;1.27;70.94;98810.31;4182859;28;20230;-82
2023/04/04 04:40:25;;;;;;;5.38;4.65;;;;;;;1.28;70.84;98809.41;4163757;28;20277;-82
2023/04/04 04:42:34;;;;;;;9.45;5.47;;;;;;;1.23;70.74;98809.50;4169125;28;20229;-83
2023/04/04 04:44:38;;;;;;;5.78;4.47;;;;;;;1.22;70.90;98806.97;4172968;28;20698;-82
2023/04/04 04:46:42;;;;;;;4.95;3.78;;;;;;;1.22;71.15;98815.53;4186836;28;20216;-82
2023/04/04 04:48:50;;;;;;;5.57;4.03;;;;;;;1.26;71.12;98819.72;4188537;28;20242;-82
2023/04/04 04:50:59;;;;;;;4.28;3.50;;;;;;;1.16;70.95;98819.97;4202437;28;20245;-82
2023/04/04 04:53:12;;;;;;;5.15;4.00;;;;;;;1.19;70.49;98812.16;4165262;28;20218;-82
2023/04/04 04:55:15;;;;;;;5.28;4.05;;;;;;;1.16;70.32;98812.25;4187803;28;20217;-82
2023/04/04 04:57:22;;;;;;;8.65;4.22;;;;;;;1.10;70.87;98815.78;4186451;28;20540;-82
2023/04/04 04:59:26;;;;;;;7.03;4.40;;;;;;;1.09;71.41;98814.09;4185666;28;20232;-82
2023/04/04 05:01:29;;;;;;;5.43;4.38;;;;;;;1.07;71.10;98809.88;4186167;28;20224;-82
2023/04/04 05:03:34;;;;;;;5.07;3.80;;;;;;;1.09;70.89;98813.25;4180013;28;20217;-83
2023/04/04 05:05:42;;;;;;;6.10;4.38;;;;;;;1.15;70.40;98820.84;4160390;28;20307;-82
2023/04/04 05:07:48;;;;;;;4.53;4.00;;;;;;;1.20;70.83;98811.31;4165553;28;20228;-82
2023/04/04 05:09:51;;;;;;;5.60;4.03;;;;;;;1.28;70.61;98819.69;4180703;28;20248;-82
2023/04/04 05:11:57;;;;;;;6.70;4.00;;;;;;;1.31;70.22;98824.78;4180307;28;20213;-83
2023/04/04 05:14:10;;;;;;;5.20;3.83;;;;;;;1.42;70.46;98826.25;4188420;28;20213;-83
2023/04/04 05:16:21;;;;;;;4.63;3.90;;;;;;;1.61;69.88;98815.56;4166696;28;20384;-83
2023/04/04 05:18:26;;;;;;;4.95;4.05;;;;;;;1.84;69.54;98830.47;4168884;28;20838;-83
2023/04/04 05:20:32;;;;;;;5.57;4.10;;;;;;;2.03;69.67;98835.13;4182825;28;20251;-83
2023/04/04 05:22:36;;;;;;;6.18;4.10;;;;;;;2.20;68.92;98828.72;4171493;28;20222;-83
2023/04/04 05:24:41;;;;;;;5.32;4.32;;;;;;;2.33;68.12;98841.28;4180431;28;20293;-83
2023/04/04 05:26:47;;;;;;;9.63;5.20;;;;;;;2.50;67.55;98848.59;4185200;28;20229;-83
2023/04/04 05:28:50;;;;;;;5.05;4.57;;;;;;;2.52;67.13;98842.50;4178230;28;20320;-84
2023/04/04 05:30:55;;;;;;;7.10;4.75;;;;;;;2.72;66.87;98840.28;4176316;28;20708;-83
2023/04/04 05:33:02;;;;;;;6.35;4.93;;;;;;;2.96;66.62;98848.22;4187518;28;21056;-82
2023/04/04 05:35:06;;;;;;;6.65;4.40;;;;;;;3.17;66.33;98846.78;4173799;28;20206;-82
2023/04/04 05:37:12;;;;;;;5.68;4.35;;;;;;;3.36;65.38;98857.38;4187210;28;20205;-82
2023/04/04 05:39:16;;;;;;;6.85;4.28;;;;;;;3.57;64.57;98855.94;4188739;28;20214;-83
2023/04/04 05:41:31;;;;;;;5.85;4.68;;;;;;;3.74;64.23;98855.41;4183103;28;20209;-83
2023/04/04 05:43:39;;;;;;;8.55;4.78;;;;;;;3.95;63.09;98862.50;4180632;28;20202;-83
2023/04/04 05:45:48;;;;;;;10.32;5.60;;;;;;;4.02;63.44;98864.00;4188519;28;20236;-83
2023/04/04 05:47:52;;;;;;;6.32;4.47;;;;;;;4.18;63.19;98869.53;4164642;28;20198;-83
2023/04/04 05:49:57;;;;;;;5.10;4.47;;;;;;;4.33;63.59;98865.59;4169013;28;20206;-83
2023/04/04 05:52:01;;;;;;;4.95;3.97;;;;;;;4.42;62.02;98867.03;4174650;28;20256;-82
2023/04/04 05:54:07;;;;;;;3.97;3.55;;;;;;;4.57;62.01;98872.56;4187908;28;20209;-83
2023/04/04 05:56:12;;;;;;;5.03;4.00;;;;;;;4.68;61.44;98876.47;4183757;28;20297;-83
2023/04/04 05:58:15;;;;;;;4.43;3.38;;;;;;;4.90;60.97;98876.59;4184047;28;20198;-83
2023/04/04 06:00:24;;;;;;;3.70;3.20;;;;;;;4.96;61.44;98874.69;4164665;28;20214;-82
2023/04/04 06:02:37;;;;;;;4.55;3.60;;;;;;;5.14;59.63;98880.06;4186150;28;20201;-83
2023/04/04 06:04:44;;;;;;;6.53;4.00;;;;;;;5.28;59.87;98884.75;4187068;28;20311;-82
2023/04/04 06:06:52;;;;;;;4.65;4.05;;;;;;;5.33;59.66;98881.09;4183497;28;20296;-83
2023/04/04 06:08:56;;;;;;;4.50;3.90;;;;;;;5.46;59.05;98879.78;4164600;28;20223;-83
2023/04/04 06:11:00;;;;;;;5.63;4.40;;;;;;;5.62;59.29;98888.66;4182164;28;20650;-83
2023/04/04 06:13:03;;;;;;;5.00;4.22;;;;;;;5.71;58.57;98885.75;4170689;28;20217;-82
2023/04/04 06:15:08;;;;;;;7.40;5.50;;;;;;;5.85;58.81;98889.56;4186129;28;20291;-83
2023/04/04 06:17:12;;;;;;;5.75;5.22;;;;;;;5.96;57.94;98889.16;4167439;28;20213;-83
2023/04/04 06:19:15;;;;;;;5.82;4.88;;;;;;;6.11;58.36;98892.00;4198749;28;20198;-84
2023/04/04 06:21:18;;;;;;;5.82;5.10;;;;;;;6.23;57.50;98884.59;4176792;28;20217;-84
2023/04/04 06:23:21;;;;;;;9.55;8.55;;;;;;;6.36;56.95;98893.59;4162791;28;20767;-83
2023/04/04 06:25:26;;;;;;;7.80;6.45;;;;;;;6.19;56.42;98885.66;4170825;28;20210;-84
2023/04/04 06:27:34;;;;;;;6.60;4.43;;;;;;;6.27;56.65;98883.59;4171495;28;20292;-84
2023/04/04 06:29:38;;;;;;;9.55;6.45;;;;;;;6.49;56.66;98893.97;4170150;28;20250;-82
2023/04/04 06:31:43;;;;;;;3.95;3.45;;;;;;;6.73;56.20;98893.81;4186354;28;20216;-83
2023/04/04 06:33:55;;;;;;;5.53;4.60;;;;;;;6.88;56.41;98896.63;4166313;28;20201;-83
2023/04/04 06:35:59;;;;;;;3.88;3.58;;;;;;;7.03;55.43;98904.63;4171719;28;20207;-83
2023/04/04 06:38:04;;;;;;;6.45;3.78;;;;;;;6.94;55.30;98898.97;4179135;28;20214;-84
2023/04/04 06:40:09;;;;;;;4.22;3.50;;;;;;;6.91;55.37;98886.13;4185119;28;20304;-85
2023/04/04 06:42:12;;;;;;;4.88;3.42;;;;;;;6.93;55.28;98889.53;4192126;28;20229;-84
2023/04/04 06:44:23;;;;;;;6.78;5.55;;;;;;;6.97;55.76;98892.81;4175945;28;20310;-84
2023/04/04 06:46:26;;;;;;;5.35;3.30;;;;;;;6.76;55.37;98889.34;4184189;28;20818;-84
2023/04/04 06:48:30;;;;;;;4.78;4.22;;;;;;;6.93;55.97;98893.84;4173939;28;20709;-84
2023/04/04 06:50:33;;;;;;;4.63;3.08;;;;;;;6.97;54.25;98892.81;4185273;28;20612;-84
2023/04/04 06:52:39;;;;;;;3.30;3.00;;;;;;;6.96;54.60;98897.19;4173583;28;20636;-84
2023/04/04 06:54:42;;;;;;;3.33;3.00;;;;;;;7.05;54.15;98895.03;4178478;28;20701;-84
2023/04/04 06:56:45;;;;;;;4.47;3.13;;;;;;;7.10;53.82;98887.91;4184531;28;20656;-84
2023/04/04 06:58:49;;;;;;;4.15;3.15;;;;;;;7.04;53.94;98890.75;4187976;28;20202;-84
2023/04/04 07:00:55;;;;;;;5.05;3.20;;;;;;;6.98;54.59;98889.34;4171400;28;20204;-84
2023/04/04 07:02:59;;;;;;;6.20;3.50;;;;;;;6.96;53.83;98884.22;4193075;28;20214;-83
2023/04/04 07:05:02;;;;;;;5.75;4.00;;;;;;;7.29;54.80;98886.22;4181805;28;20235;-84
2023/04/04 07:07:05;;;;;;;6.45;3.50;;;;;;;7.25;53.17;98889.03;4189100;28;20203;-84
2023/04/04 07:09:08;;;;;;;3.95;3.03;;;;;;;7.03;53.54;98881.28;4185998;28;20230;-84
2023/04/04 07:11:28;;;;;;;4.20;3.28;;;;;;;7.24;54.70;98884.72;4185332;28;20207;-83
2023/04/04 07:13:31;;;;;;;3.55;2.75;;;;;;;7.18;53.33;98888.41;4186558;28;21414;-84
2023/04/04 07:15:34;;;;;;;3.88;3.25;;;;;;;7.00;54.04;98883.16;4204649;28;20220;-84
2023/04/04 07:17:39;;;;;;;4.05;3.00;;;;;;;7.23;53.95;98896.00;4182792;28;20300;-84
2023/04/04 07:19:43;;;;;;;4.95;3.05;;;;;;;7.41;53.33;98901.25;4184074;28;20213;-83
2023/04/04 07:21:46;;;;;;;4.47;2.97;;;;;;;7.18;53.84;98892.78;4186123;28;20305;-84
2023/04/04 07:23:50;;;;;;;6.75;4.65;;;;;;;7.13;53.47;98894.72;4199215;28;20221;-84
2023/04/04 07:25:53;;;;;;;6.95;3.50;;;;;;;7.39;53.29;98894.47;4176753;28;20238;-83
2023/04/04 07:27:56;;;;;;;4.55;3.55;;;;;;;7.46;52.49;98898.44;4188551;28;20560;-83
2023/04/04 07:30:15;;;;;;;4.65;3.20;;;;;;;7.57;52.72;98902.28;4185189;28;20223;-83
2023/04/04 07:32:18;;;;;;;5.35;3.83;;;;;;;7.60;54.25;98902.97;4170673;28;20229;-83
2023/04/04 07:34:24;;;;;;;4.00;3.55;;;;;;;7.80;52.90;98909.91;4183452;28;20223;-83
2023/04/04 07:36:27;;;;;;;5.55;3.80;;;;;;;7.83;53.86;98909.75;4187180;28;20209;-83
2023/04/04 07:38:30;;;;;;;3.92;2.97;;;;;;;7.67;52.87;98895.78;4185755;28;20290;-83
2023/04/04 07:40:33;;;;;;;6.18;4.00;;;;;;;7.62;52.25;98903.78;4189197;28;20201;-83
2023/04/04 07:42:36;;;;;;;3.60;3.08;;;;;;;8.00;52.83;98903.75;4177795;28;20229;-83
2023/04/04 07:44:40;;;;;;;4.05;3.08;;;;;;;8.00;51.43;98908.94;4186697;28;20219;-85
2023/04/04 07:46:43;;;;;;;5.10;3.50;;;;;;;8.05;53.00;98906.16;4188683;28;20220;-85
2023/04/04 07:48:49;;;;;;;4.70;2.88;;;;;;;8.07;52.14;98904.31;4189715;28;20293;-82
2023/04/04 07:50:54;;;;;;;3.85;3.13;;;;;;;8.22;52.80;98906.25;4180866;28;20216;-82
2023/04/04 07:52:57;;;;;;;4.90;2.80;;;;;;;8.33;51.64;98904.84;4184204;28;20801;-82
2023/04/04 07:55:02;;;;;;;4.85;3.10;;;;;;;8.28;53.18;98900.75;4185906;28;20198;-82
2023/04/04 07:57:05;;;;;;;6.38;3.70;;;;;;;7.76;51.77;98904.00;4190089;28;20248;-83
2023/04/04 07:59:08;;;;;;;5.18;2.88;;;;;;;7.83;52.87;98904.56;4179781;28;20208;-83
2023/04/04 08:01:11;;;;;;;4.60;3.10;;;;;;;8.15;53.77;98903.09;4181163;28;20218;-82
2023/04/04 08:03:16;;;;;;;4.78;2.85;;;;;;;8.54;51.84;98906.44;4163349;28;20747;-86
2023/04/04 08:05:20;;;;;;;3.85;2.80;;;;;;;8.91;52.15;98911.56;4173103;28;20240;-84
2023/04/04 08:07:25;;;;;;;5.22;3.20;;;;;;;9.21;52.14;98911.72;4184893;28;20214;-84
2023/04/04 08:09:33;;;;;;;4.95;3.40;;;;;;;9.27;51.08;98911.41;4177955;28;20222;-82
2023/04/04 08:11:36;;;;;;;6.70;3.30;;;;;;;9.57;50.66;98917.69;4185713;28;20331;-83
2023/04/04 08:13:39;;;;;;;5.80;2.75;;;;;;;9.38;50.13;98911.72;4176567;28;20213;-83
2023/04/04 08:15:43;;;;;;;3.55;3.00;;;;;;;9.16;50.86;98908.50;4161673;28;20293;-82
2023/04/04 08:17:47;;;;;;;7.13;3.05;;;;;;;9.21;49.50;98909.13;4181492;28;20231;-82
2023/04/04 08:19:50;;;;;;;4.13;3.40;;;;;;;9.37;52.01;98906.59;4191667;28;20287;-82
2023/04/04 08:21:53;;;;;;;7.38;3.28;;;;;;;9.70;50.39;98916.16;4184853;28;20213;-82
2023/04/04 08:23:57;;;;;;;5.05;3.35;;;;;;;9.59;49.10;98915.84;4180220;28;20254;-82
2023/04/04 08:26:01;;;;;;;3.60;3.25;;;;;;;9.54;50.26;98910.03;4176704;28;20202;-82
2023/04/04 08:28:04;;;;;;;4.00;2.90;;;;;;;9.53;49.21;98914.41;4197535;28;20204;-82
2023/04/04 08:30:09;;;;;;;5.18;3.47;;;;;;;9.73;49.98;98906.41;4188967;28;20348;-82
2023/04/04 08:32:12;;;;;;;3.80;3.13;;;;;;;9.85;48.29;98906.59;4181514;28;20217;-83
2023/04/04 08:34:15;;;;;;;6.07;3.00;;;;;;;9.87;49.34;98907.34;4184129;28;20578;-82
2023/04/04 08:36:18;;;;;;;6.38;3.00;;;;;;;9.75;48.94;98912.38;4182976;28;20216;-82
2023/04/04 08:38:21;;;;;;;4.10;3.70;;;;;;;9.74;48.57;98902.03;4174033;28;20207;-82
2023/04/04 08:40:29;;;;;;;3.95;3.20;;;;;;;9.39;48.40;98901.22;4186614;28;20295;-82
2023/04/04 08:42:34;;;;;;;3.42;2.97;;;;;;;9.18;49.09;98896.25;4205198;28;20205;-82
2023/04/04 08:44:39;;;;;;;3.90;3.00;;;;;;;9.48;50.01;98889.50;4189288;28;20206;-83
2023/04/04 08:46:44;;;;;;;4.57;3.60;;;;;;;9.61;49.32;98901.00;4179493;28;20215;-84
2023/04/04 08:48:48;;;;;;;4.20;3.00;;;;;;;9.76;49.13;98892.34;4183923;28;20210;-84
2023/04/04 08:50:56;;;;;;;4.35;3.35;;;;;;;9.31;48.16;98901.72;4174412;28;20729;-83
2023/04/04 08:53:01;;;;;;;5.53;3.65;;;;;;;9.29;48.49;98903.53;4177809;28;21411;-83
2023/04/04 08:55:06;;;;;;;4.45;2.88;;;;;;;9.59;49.25;98902.81;4176873;28;20305;-82
2023/04/04 08:57:11;;;;;;;4.55;3.20;;;;;;;9.50;47.21;98888.53;4184540;28;20228;-82
2023/04/04 08:59:17;;;;;;;4.72;2.78;;;;;;;9.31;48.46;98902.53;4182097;28;20210;-82
2023/04/04 09:01:22;;;;;;;5.07;3.30;;;;;;;9.18;49.64;98885.03;4191506;28;20735;-82
2023/04/04 09:03:27;;;;;;;4.75;3.28;;;;;;;9.33;48.95;98889.47;4177744;28;20259;-83
2023/04/04 09:05:30;;;;;;;9.13;6.45;;;;;;;9.33;49.17;98895.50;4188001;28;20233;-83
2023/04/04 09:07:33;;;;;;;5.35;3.97;;;;;;;9.55;48.80;98903.91;4186217;28;20220;-83
2023/04/04 09:09:41;;;;;;;11.02;7.07;;;;;;;9.61;48.63;98890.56;4180510;28;20200;-83
2023/04/04 09:11:45;;;;;;;5.28;2.85;;;;;;;9.46;48.13;98893.97;4178044;28;20906;-83
2023/04/04 09:13:51;;;;;;;7.95;5.60;;;;;;;9.52;49.98;98896.25;4170002;28;20215;-83
2023/04/04 09:15:55;;;;;;;6.85;5.28;;;;;;;9.83;49.29;98896.34;4185638;28;20212;-83
2023/04/04 09:17:58;;;;;;;5.68;3.40;;;;;;;10.06;50.25;98895.06;4187887;28;20213;-83
2023/04/04 09:20:03;;;;;;;5.60;3.20;;;;;;;10.10;49.61;98896.59;4178240;28;20242;-83
2023/04/04 09:22:08;;;;;;;4.05;3.65;;;;;;;9.96;48.10;98888.66;4186257;28;20777;-83
2023/04/04 09:24:11;;;;;;;4.45;3.35;;;;;;;10.08;49.76;98901.03;4182310;28;20225;-83
2023/04/04 09:26:15;;;;;;;5.80;3.65;;;;;;;10.14;49.82;98889.44;4186125;28;20709;-82
2023/04/04 09:28:19;;;;;;;3.67;3.13;;;;;;;10.29;48.97;98897.28;4176307;28;20204;-82
2023/04/04 09:30:24;;;;;;;4.15;3.03;;;;;;;10.13;48.77;98890.38;4180950;28;20240;-82
2023/04/04 09:32:27;;;;;;;4.60;3.13;;;;;;;9.82;48.08;98889.44;4187752;28;20242;-83
2023/04/04 09:34:31;;;;;;;4.97;3.40;;;;;;;9.77;48.26;98894.06;4185555;28;20536;-82
2023/04/04 09:36:35;;;;;;;4.55;3.40;;;;;;;9.87;48.04;98898.69;4191018;28;20210;-82
2023/04/04 09:38:41;;;;;;;4.53;3.03;;;;;;;9.76;46.90;98900.16;4191869;28;20239;-82
2023/04/04 09:40:45;;;;;;;3.45;2.90;;;;;;;9.48;47.67;98887.75;4190765;28;20272;-82
2023/04/04 09:42:49;;;;;;;4.57;3.55;;;;;;;9.48;48.08;98885.13;4186757;28;20205;-83
2023/04/04 09:44:53;;;;;;;3.85;3.33;;;;;;;9.76;49.22;98887.16;4187939;28;20208;-82
2023/04/04 09:47:23;;;;;;;4.30;3.90;;;;;;;10.06;48.52;98892.47;4173848;28;20271;-82
2023/04/04 09:49:32;;;;;;;6.20;3.50;;;;;;;9.60;46.91;98891.50;4186887;28;20704;-82
2023/04/04 09:51:36;;;;;;;6.65;4.07;;;;;;;9.14;48.13;98884.34;4184073;28;20650;-83
2023/04/04 09:53:40;;;;;;;3.85;3.20;;;;;;;8.81;49.24;98879.09;4189596;28;20208;-82